createdAt,value
2023-03-11T00:00:44.947Z,95773.69
2023-03-11T00:03:15.294Z,95780.38
2023-03-11T00:05:43.542Z,95790.41
2023-03-11T00:08:14.601Z,95792.84
2023-03-11T00:10:43.455Z,95811.94
2023-03-11T00:13:13.496Z,95827.34
2023-03-11T00:15:41.523Z,95822.69
2023-03-11T00:18:09.202Z,95844.22
2023-03-11T00:20:39.050Z,95834.63
2023-03-11T00:23:08.010Z,95849.78
2023-03-11T00:25:37.033Z,95850.50
2023-03-11T00:28:05.475Z,95859.50
2023-03-11T00:30:33.500Z,95864.69
2023-03-11T00:33:00.661Z,95878.13
2023-03-11T00:35:31.477Z,95893.03
2023-03-11T00:38:01.770Z,95886.72
2023-03-11T00:40:30.959Z,95892.81
2023-03-11T00:42:59.157Z,95895.50
2023-03-11T00:45:27.368Z,95904.81
2023-03-11T00:47:55.310Z,95910.94
2023-03-11T00:50:29.006Z,95909.25
2023-03-11T00:52:56.419Z,95923.19
2023-03-11T00:55:25.860Z,95917.09
2023-03-11T00:57:54.835Z,95940.13
2023-03-11T01:00:23.600Z,95929.13
2023-03-11T01:02:52.648Z,95931.09
2023-03-11T01:05:21.216Z,95934.53
2023-03-11T01:07:50.644Z,95946.00
2023-03-11T01:10:18.177Z,95952.63
2023-03-11T01:12:46.233Z,95947.25
2023-03-11T01:15:26.278Z,95960.25
2023-03-11T01:17:53.346Z,95960.53
2023-03-11T01:20:22.599Z,95972.03
2023-03-11T01:22:50.066Z,95983.81
2023-03-11T01:25:19.088Z,95968.69
2023-03-11T01:27:46.784Z,95979.19
2023-03-11T01:30:17.566Z,95993.44
2023-03-11T01:32:44.790Z,95987.09
2023-03-11T01:35:13.940Z,95985.16
2023-03-11T01:37:41.086Z,95995.22
2023-03-11T01:40:11.954Z,96009.16
2023-03-11T01:42:39.200Z,96011.59
2023-03-11T01:45:34.397Z,96026.03
2023-03-11T01:48:01.568Z,96026.03
2023-03-11T01:50:33.475Z,96023.34
2023-03-11T01:53:00.605Z,96040.19
2023-03-11T01:55:28.532Z,96054.38
2023-03-11T01:57:56.159Z,96038.97
2023-03-11T02:00:23.255Z,96058.00
2023-03-11T02:02:54.575Z,96053.88
2023-03-11T02:05:23.139Z,96066.34
2023-03-11T02:07:51.827Z,96072.72
2023-03-11T02:10:19.541Z,96088.13
2023-03-11T02:12:47.989Z,96077.38
2023-03-11T02:15:15.457Z,96085.00
2023-03-11T02:17:43.366Z,96094.75
2023-03-11T02:20:19.649Z,96105.78
2023-03-11T02:22:47.277Z,96116.75
2023-03-11T02:25:18.846Z,96115.56
2023-03-11T02:27:48.135Z,96132.22
2023-03-11T02:30:16.400Z,96148.09
2023-03-11T02:32:44.560Z,96147.59
2023-03-11T02:35:11.689Z,96162.25
2023-03-11T02:37:47.133Z,96154.97
2023-03-11T02:40:23.199Z,96162.03
2023-03-11T02:42:52.129Z,96181.34
2023-03-11T02:45:20.768Z,96182.34
2023-03-11T02:47:48.381Z,96193.09
2023-03-11T02:50:16.647Z,96199.19
2023-03-11T02:52:43.859Z,96207.75
2023-03-11T02:55:11.994Z,96212.66
2023-03-11T02:57:39.074Z,96219.25
2023-03-11T03:00:11.045Z,96217.28
2023-03-11T03:02:38.119Z,96231.69
2023-03-11T03:05:05.928Z,96252.00
2023-03-11T03:07:33.004Z,96240.75
2023-03-11T03:10:00.506Z,96250.53
2023-03-11T03:12:27.547Z,96261.06
2023-03-11T03:14:54.608Z,96282.78
2023-03-11T03:17:22.446Z,96274.50
2023-03-11T03:19:50.033Z,96276.69
2023-03-11T03:22:17.555Z,96288.16
2023-03-11T03:24:44.668Z,96295.72
2023-03-11T03:27:12.292Z,96307.22
2023-03-11T03:29:39.352Z,96308.94
2023-03-11T03:32:07.690Z,96320.41
2023-03-11T03:34:35.093Z,96322.13
2023-03-11T03:37:02.174Z,96337.75
2023-03-11T03:39:30.694Z,96335.06
2023-03-11T03:41:57.878Z,96354.38
2023-03-11T03:44:24.930Z,96347.78
2023-03-11T03:46:51.995Z,96369.28
2023-03-11T03:49:19.031Z,96366.59
2023-03-11T03:51:46.720Z,96365.34
2023-03-11T03:54:13.833Z,96385.88
2023-03-11T03:56:41.291Z,96374.66
2023-03-11T03:59:08.714Z,96390.03
2023-03-11T04:01:35.839Z,96393.22
2023-03-11T04:04:03.013Z,96387.34
2023-03-11T04:06:30.291Z,96402.00
2023-03-11T04:08:57.369Z,96420.09
2023-03-11T04:11:24.509Z,96424.72
2023-03-11T04:13:51.719Z,96421.06
2023-03-11T04:16:21.023Z,96425.72
2023-03-11T04:18:48.149Z,96425.47
2023-03-11T04:21:15.279Z,96432.53
2023-03-11T04:23:42.622Z,96438.63
2023-03-11T04:26:09.701Z,96445.22
2023-03-11T04:28:36.859Z,96446.22
2023-03-11T04:31:04.080Z,96444.50
2023-03-11T04:33:31.269Z,96465.25
2023-03-11T04:35:59.253Z,96467.94
2023-03-11T04:38:26.498Z,96474.78
2023-03-11T04:40:53.526Z,96469.69
2023-03-11T04:43:20.570Z,96471.63
2023-03-11T04:45:50.327Z,96483.84
2023-03-11T04:48:17.493Z,96496.06
2023-03-11T04:50:45.054Z,96494.34
2023-03-11T04:53:12.096Z,96499.97
2023-03-11T04:55:40.022Z,96505.09
2023-03-11T04:58:07.064Z,96504.84
2023-03-11T05:00:34.585Z,96504.84
2023-03-11T05:03:01.857Z,96512.66
2023-03-11T05:05:28.929Z,96521.44
2023-03-11T05:07:55.970Z,96512.66
2023-03-11T05:10:23.000Z,96521.94
2023-03-11T05:12:50.752Z,96526.59
2023-03-11T05:15:18.633Z,96529.72
2023-03-11T05:17:45.842Z,96537.53
2023-03-11T05:20:15.547Z,96526.78
2023-03-11T05:22:42.904Z,96547.56
2023-03-11T05:25:10.266Z,96548.78
2023-03-11T05:27:37.338Z,96560.50
2023-03-11T05:30:04.734Z,96563.69
2023-03-11T05:32:32.136Z,96565.16
2023-03-11T05:34:59.228Z,96571.75
2023-03-11T05:37:26.308Z,96564.41
2023-03-11T05:39:53.403Z,96585.19
2023-03-11T05:42:21.582Z,96591.78
2023-03-11T05:44:49.150Z,96581.75
2023-03-11T05:47:17.340Z,96588.59
2023-03-11T05:49:44.580Z,96595.44
2023-03-11T05:52:11.904Z,96593.03
2023-03-11T05:54:39.242Z,96601.34
2023-03-11T05:57:06.354Z,96613.31
2023-03-11T05:59:35.682Z,96613.31
2023-03-11T06:02:02.852Z,96618.69
2023-03-11T06:04:33.543Z,96620.88
2023-03-11T06:07:01.725Z,96622.34
2023-03-11T06:09:28.843Z,96620.88
2023-03-11T06:11:55.877Z,96627.00
2023-03-11T06:14:22.941Z,96648.72
2023-03-11T06:16:50.002Z,96649.94
2023-03-11T06:19:17.058Z,96673.88
2023-03-11T06:21:44.094Z,96665.09
2023-03-11T06:24:11.193Z,96661.66
2023-03-11T06:26:38.289Z,96681.47
2023-03-11T06:29:08.733Z,96671.44
2023-03-11T06:31:37.149Z,96675.84
2023-03-11T06:34:05.483Z,96682.44
2023-03-11T06:36:33.091Z,96695.44
2023-03-11T06:39:00.305Z,96692.75
2023-03-11T06:41:27.353Z,96699.84
2023-03-11T06:43:54.545Z,96711.31
2023-03-11T06:46:23.158Z,96714.75
2023-03-11T06:48:52.850Z,96714.75
2023-03-11T06:51:21.035Z,96721.34
2023-03-11T06:53:50.144Z,96723.28
2023-03-11T06:56:17.271Z,96727.94
2023-03-11T06:58:44.683Z,96732.28
2023-03-11T07:01:15.461Z,96733.50
2023-03-11T07:03:42.978Z,96736.91
2023-03-11T07:06:15.403Z,96746.19
2023-03-11T07:08:42.570Z,96759.16
2023-03-11T07:11:12.917Z,96760.88
2023-03-11T07:13:40.444Z,96759.66
2023-03-11T07:16:12.942Z,96770.88
2023-03-11T07:18:40.103Z,96774.78
2023-03-11T07:21:09.090Z,96776.47
2023-03-11T07:23:36.427Z,96779.19
2023-03-11T07:26:04.917Z,96791.88
2023-03-11T07:28:32.072Z,96797.97
2023-03-11T07:30:59.195Z,96796.03
2023-03-11T07:33:26.278Z,96803.63
2023-03-11T07:35:53.379Z,96807.50
2023-03-11T07:38:21.043Z,96805.75
2023-03-11T07:40:48.119Z,96820.69
2023-03-11T07:43:15.209Z,96820.22
2023-03-11T07:45:42.254Z,96826.53
2023-03-11T07:48:09.365Z,96826.28
2023-03-11T07:50:36.462Z,96833.13
2023-03-11T07:53:03.537Z,96840.91
2023-03-11T07:55:30.816Z,96846.56
2023-03-11T07:57:57.917Z,96859.06
2023-03-11T08:00:25.032Z,96863.47
2023-03-11T08:02:52.349Z,96874.47
2023-03-11T08:05:21.103Z,96866.41
2023-03-11T08:07:48.163Z,96869.34
2023-03-11T08:10:15.415Z,96873.06
2023-03-11T08:12:42.454Z,96874.28
2023-03-11T08:15:10.071Z,96884.00
2023-03-11T08:17:37.197Z,96885.22
2023-03-11T08:20:05.117Z,96908.47
2023-03-11T08:22:32.228Z,96904.28
2023-03-11T08:24:59.282Z,96907.47
2023-03-11T08:27:28.897Z,96914.59
2023-03-11T08:29:57.164Z,96922.19
2023-03-11T08:32:24.431Z,96932.72
2023-03-11T08:34:51.578Z,96925.38
2023-03-11T08:37:18.839Z,96934.00
2023-03-11T08:39:45.901Z,96932.28
2023-03-11T08:42:13.343Z,96940.41
2023-03-11T08:44:40.493Z,96927.97
2023-03-11T08:47:07.714Z,96936.03
2023-03-11T08:49:35.115Z,96937.50
2023-03-11T08:52:02.416Z,96948.06
2023-03-11T08:54:29.743Z,96948.59
2023-03-11T08:56:57.045Z,96948.84
2023-03-11T08:59:24.212Z,96955.22
2023-03-11T09:01:51.295Z,96958.66
2023-03-11T09:04:18.328Z,96966.25
2023-03-11T09:06:45.593Z,96968.47
2023-03-11T09:09:12.633Z,96972.16
2023-03-11T09:11:40.812Z,96980.50
2023-03-11T09:14:10.552Z,96985.88
2023-03-11T09:16:37.585Z,96988.81
2023-03-11T09:19:07.237Z,96988.06
2023-03-11T09:21:35.005Z,96997.88
2023-03-11T09:24:04.218Z,96998.16
2023-03-11T09:26:31.930Z,97020.19
2023-03-11T09:29:00.002Z,97018.50
2023-03-11T09:31:27.080Z,97016.03
2023-03-11T09:33:55.604Z,97023.84
2023-03-11T09:36:22.941Z,97031.63
2023-03-11T09:38:50.003Z,97030.44
2023-03-11T09:41:17.739Z,97038.28
2023-03-11T09:44:03.868Z,97045.16
2023-03-11T09:46:49.790Z,97043.66
2023-03-11T09:49:29.496Z,97055.16
2023-03-11T09:52:01.191Z,97056.38
2023-03-11T09:54:30.613Z,97063.22
2023-03-11T09:56:57.794Z,97071.53
2023-03-11T09:59:31.646Z,97083.22
2023-03-11T10:01:59.510Z,97078.13
2023-03-11T10:04:29.236Z,97082.53
2023-03-11T10:06:56.996Z,97076.94
2023-03-11T10:09:34.256Z,97076.94
2023-03-11T10:12:17.794Z,97091.88
2023-03-11T10:15:03.290Z,97078.16
2023-03-11T10:17:52.587Z,97092.09
2023-03-11T10:20:23.531Z,97091.13
2023-03-11T10:23:00.166Z,97090.69
2023-03-11T10:25:54.437Z,97101.22
2023-03-11T10:28:26.236Z,97108.34
2023-03-11T10:30:57.213Z,97111.50
2023-03-11T10:33:29.579Z,97111.75
2023-03-11T10:35:58.994Z,97104.72
2023-03-11T10:38:33.722Z,97111.09
2023-03-11T10:41:05.908Z,97120.72
2023-03-11T10:43:39.523Z,97117.34
2023-03-11T10:46:16.937Z,97117.63
2023-03-11T10:48:44.047Z,97121.84
2023-03-11T10:51:14.003Z,97113.06
2023-03-11T10:53:50.890Z,97119.50
2023-03-11T10:56:30.979Z,97120.78
2023-03-11T10:58:59.805Z,97119.31
2023-03-11T11:01:29.002Z,97114.47
2023-03-11T11:03:57.934Z,97113.78
2023-03-11T11:06:29.123Z,97121.16
2023-03-11T11:09:15.117Z,97112.28
2023-03-11T11:11:43.083Z,97128.44
2023-03-11T11:14:10.392Z,97125.25
2023-03-11T11:16:37.814Z,97134.53
2023-03-11T11:19:09.759Z,97134.22
2023-03-11T11:21:41.449Z,97143.25
2023-03-11T11:24:24.399Z,97142.97
2023-03-11T11:27:04.698Z,97136.34
2023-03-11T11:29:32.010Z,97142.91
2023-03-11T11:32:18.813Z,97146.31
2023-03-11T11:35:06.928Z,97151.00
2023-03-11T11:37:36.141Z,97157.34
2023-03-11T11:40:14.035Z,97160.69
2023-03-11T11:43:03.695Z,97155.81
2023-03-11T11:45:37.346Z,97160.19
2023-03-11T11:48:23.060Z,97165.97
2023-03-11T11:50:57.307Z,97165.25
2023-03-11T11:53:50.020Z,97164.50
2023-03-11T11:56:17.069Z,97175.06
2023-03-11T11:58:44.087Z,97171.91
2023-03-11T12:01:21.903Z,97172.44
2023-03-11T12:04:13.883Z,97165.16
2023-03-11T12:07:02.362Z,97170.38
2023-03-11T12:09:48.955Z,97179.25
2023-03-11T12:12:42.390Z,97170.78
2023-03-11T12:15:24.430Z,97178.25
2023-03-11T12:17:53.080Z,97168.84
2023-03-11T12:20:32.669Z,97166.97
2023-03-11T12:23:16.631Z,97164.63
2023-03-11T12:26:03.384Z,97168.44
2023-03-11T12:28:39.663Z,97160.84
2023-03-11T12:31:10.062Z,97166.72
2023-03-11T12:33:43.472Z,97177.41
2023-03-11T12:36:23.625Z,97169.75
2023-03-11T12:38:51.396Z,97166.53
2023-03-11T12:41:27.519Z,97183.66
2023-03-11T12:43:59.978Z,97171.88
2023-03-11T12:46:55.582Z,97176.53
2023-03-11T12:49:27.543Z,97183.88
2023-03-11T12:52:16.104Z,97182.34
2023-03-11T12:55:03.860Z,97186.75
2023-03-11T12:57:37.655Z,97184.97
2023-03-11T13:00:23.124Z,97199.09
2023-03-11T13:03:47.846Z,97182.38
2023-03-11T13:06:45.621Z,97197.25
2023-03-11T13:09:16.975Z,97206.78
2023-03-11T13:11:46.264Z,97205.22
2023-03-11T13:14:29.341Z,97201.72
2023-03-11T13:17:16.932Z,97206.59
2023-03-11T13:19:49.358Z,97211.50
2023-03-11T13:22:43.406Z,97210.84
2023-03-11T13:25:29.965Z,97218.50
2023-03-11T13:28:06.931Z,97214.63
2023-03-11T13:30:39.840Z,97217.88
2023-03-11T13:33:25.020Z,97217.44
2023-03-11T13:36:13.544Z,97229.47
2023-03-11T13:39:00.998Z,97228.25
2023-03-11T13:41:32.031Z,97234.38
2023-03-11T13:44:13.645Z,97235.16
2023-03-11T13:46:42.440Z,97238.59
2023-03-11T13:49:19.843Z,97237.31
2023-03-11T13:51:47.622Z,97243.91
2023-03-11T13:54:20.260Z,97236.56
2023-03-11T13:56:51.138Z,97246.84
2023-03-11T13:59:28.805Z,97248.81
2023-03-11T14:01:58.731Z,97257.63
2023-03-11T14:04:30.792Z,97253.47
2023-03-11T14:06:58.785Z,97257.16
2023-03-11T14:09:28.324Z,97258.63
2023-03-11T14:12:07.723Z,97260.13
2023-03-11T14:14:43.774Z,97259.44
2023-03-11T14:17:18.335Z,97267.31
2023-03-11T14:20:04.763Z,97260.97
2023-03-11T14:22:32.282Z,97269.31
2023-03-11T14:25:02.163Z,97273.03
2023-03-11T14:27:30.246Z,97279.59
2023-03-11T14:29:57.361Z,97276.66
2023-03-11T14:32:35.500Z,97286.44
2023-03-11T14:35:17.044Z,97285.16
2023-03-11T14:37:44.344Z,97294.44
2023-03-11T14:40:27.066Z,97290.53
2023-03-11T14:42:56.300Z,97282.94
2023-03-11T14:45:25.380Z,97299.09
2023-03-11T14:48:06.750Z,97311.91
2023-03-11T14:50:35.226Z,97306.03
2023-03-11T14:53:09.306Z,97309.69
2023-03-11T14:55:40.451Z,97312.38
2023-03-11T14:58:17.822Z,97314.13
2023-03-11T15:01:14.643Z,97312.91
2023-03-11T15:03:49.259Z,97313.38
2023-03-11T15:06:18.681Z,97312.38
2023-03-11T15:08:48.031Z,97324.09
2023-03-11T15:11:15.402Z,97322.34
2023-03-11T15:13:44.194Z,97329.44
2023-03-11T15:16:40.982Z,97329.88
2023-03-11T15:19:43.429Z,97339.66
2023-03-11T15:22:19.537Z,97342.09
2023-03-11T15:24:50.741Z,97343.31
2023-03-11T15:27:32.826Z,97341.34
2023-03-11T15:30:01.262Z,97344.31
2023-03-11T15:32:39.724Z,97347.25
2023-03-11T15:35:12.791Z,97355.34
2023-03-11T15:37:41.721Z,97350.69
2023-03-11T15:40:42.445Z,97357.78
2023-03-11T15:43:14.504Z,97356.03
2023-03-11T15:45:42.426Z,97354.53
2023-03-11T15:48:13.214Z,97362.59
2023-03-11T15:50:53.823Z,97368.00
2023-03-11T15:53:22.700Z,97369.50
2023-03-11T15:55:50.228Z,97372.72
2023-03-11T15:58:18.850Z,97374.19
2023-03-11T16:00:48.566Z,97376.91
2023-03-11T16:03:15.992Z,97378.13
2023-03-11T16:05:43.116Z,97373.72
2023-03-11T16:08:10.226Z,97380.88
2023-03-11T16:10:37.523Z,97378.44
2023-03-11T16:13:04.623Z,97387.75
2023-03-11T16:15:37.789Z,97390.19
2023-03-11T16:18:07.455Z,97389.16
2023-03-11T16:21:03.003Z,97391.84
2023-03-11T16:23:44.790Z,97390.38
2023-03-11T16:26:19.738Z,97395.00
2023-03-11T16:28:46.815Z,97390.84
2023-03-11T16:31:14.586Z,97402.84
2023-03-11T16:33:41.637Z,97402.56
2023-03-11T16:36:10.397Z,97399.78
2023-03-11T16:38:49.028Z,97401.75
2023-03-11T16:41:16.821Z,97414.47
2023-03-11T16:43:44.400Z,97409.81
2023-03-11T16:46:11.480Z,97418.66
2023-03-11T16:48:38.630Z,97427.19
2023-03-11T16:51:06.162Z,97423.47
2023-03-11T16:53:33.269Z,97426.84
2023-03-11T16:56:00.358Z,97425.63
2023-03-11T16:58:27.652Z,97429.28
2023-03-11T17:00:54.795Z,97435.41
2023-03-11T17:03:22.275Z,97435.41
2023-03-11T17:05:49.484Z,97436.31
2023-03-11T17:08:18.218Z,97447.38
2023-03-11T17:10:45.919Z,97445.16
2023-03-11T17:13:14.002Z,97452.78
2023-03-11T17:15:44.411Z,97456.94
2023-03-11T17:18:11.843Z,97455.47
2023-03-11T17:20:40.388Z,97456.22
2023-03-11T17:23:07.477Z,97463.81
2023-03-11T17:25:34.634Z,97458.44
2023-03-11T17:28:01.709Z,97464.56
2023-03-11T17:30:36.944Z,97468.47
2023-03-11T17:33:04.733Z,97473.28
2023-03-11T17:35:31.968Z,97476.66
2023-03-11T17:37:59.266Z,97478.13
2023-03-11T17:40:27.224Z,97475.16
2023-03-11T17:42:54.268Z,97474.88
2023-03-11T17:45:21.294Z,97484.63
2023-03-11T17:47:48.354Z,97486.59
2023-03-11T17:50:15.494Z,97493.19
2023-03-11T17:52:42.908Z,97495.59
2023-03-11T17:55:10.175Z,97494.09
2023-03-11T17:57:44.952Z,97496.53
2023-03-11T18:00:15.634Z,97507.28
2023-03-11T18:02:42.712Z,97504.34
2023-03-11T18:05:10.259Z,97514.91
2023-03-11T18:07:47.010Z,97515.84
2023-03-11T18:10:15.140Z,97517.78
2023-03-11T18:12:46.355Z,97510.63
2023-03-11T18:15:20.392Z,97522.16
2023-03-11T18:17:48.114Z,97524.09
2023-03-11T18:20:15.956Z,97529.47
2023-03-11T18:22:46.635Z,97529.19
2023-03-11T18:25:14.496Z,97526.25
2023-03-11T18:27:41.618Z,97519.09
2023-03-11T18:30:11.129Z,97524.19
2023-03-11T18:32:38.526Z,97528.09
2023-03-11T18:35:06.037Z,97521.22
2023-03-11T18:37:33.659Z,97526.06
2023-03-11T18:40:00.769Z,97528.75
2023-03-11T18:42:28.239Z,97529.66
2023-03-11T18:44:55.285Z,97529.13
2023-03-11T18:47:23.451Z,97529.75
2023-03-11T18:49:50.556Z,97533.38
2023-03-11T18:52:17.662Z,97530.41
2023-03-11T18:54:44.790Z,97539.41
2023-03-11T18:57:12.135Z,97543.75
2023-03-11T18:59:39.209Z,97537.06
2023-03-11T19:02:06.496Z,97541.72
2023-03-11T19:04:33.648Z,97536.78
2023-03-11T19:07:00.709Z,97536.69
2023-03-11T19:09:27.913Z,97540.31
2023-03-11T19:11:54.959Z,97538.53
2023-03-11T19:14:22.093Z,97542.13
2023-03-11T19:16:50.339Z,97540.84
2023-03-11T19:19:18.172Z,97547.72
2023-03-11T19:21:47.524Z,97548.34
2023-03-11T19:24:15.309Z,97551.94
2023-03-11T19:26:45.431Z,97556.88
2023-03-11T19:29:14.093Z,97552.56
2023-03-11T19:31:43.689Z,97558.88
2023-03-11T19:34:11.435Z,97559.16
2023-03-11T19:36:39.423Z,97558.56
2023-03-11T19:39:06.988Z,97558.88
2023-03-11T19:41:34.260Z,97552.47
2023-03-11T19:44:03.971Z,97552.47
2023-03-11T19:46:34.464Z,97561.16
2023-03-11T19:49:02.248Z,97570.78
2023-03-11T19:51:38.781Z,97563.22
2023-03-11T19:54:16.130Z,97560.47
2023-03-11T19:56:43.737Z,97577.53
2023-03-11T19:59:10.902Z,97572.66
2023-03-11T20:01:37.945Z,97571.97
2023-03-11T20:04:05.427Z,97573.59
2023-03-11T20:06:32.550Z,97565.13
2023-03-11T20:08:59.769Z,97574.66
2023-03-11T20:11:27.149Z,97564.94
2023-03-11T20:13:54.478Z,97576.25
2023-03-11T20:16:22.560Z,97571.66
2023-03-11T20:18:50.689Z,97580.88
2023-03-11T20:21:18.168Z,97572.06
2023-03-11T20:23:45.254Z,97572.06
2023-03-11T20:26:13.893Z,97569.72
2023-03-11T20:28:41.281Z,97587.81
2023-03-11T20:31:17.161Z,97584.09
2023-03-11T20:33:44.772Z,97587.38
2023-03-11T20:36:16.003Z,97586.19
2023-03-11T20:38:43.627Z,97581.59
2023-03-11T20:41:10.843Z,97586.19
2023-03-11T20:43:38.382Z,97590.66
2023-03-11T20:46:06.519Z,97592.16
2023-03-11T20:48:35.774Z,97590.94
2023-03-11T20:51:04.920Z,97587.38
2023-03-11T20:53:32.384Z,97589.81
2023-03-11T20:56:05.119Z,97582.97
2023-03-11T20:58:32.283Z,97593.53
2023-03-11T21:00:59.422Z,97585.66
2023-03-11T21:03:26.602Z,97581.50
2023-03-11T21:05:53.853Z,97594.59
2023-03-11T21:08:21.238Z,97589.53
2023-03-11T21:10:48.390Z,97589.22
2023-03-11T21:13:15.695Z,97583.00
2023-03-11T21:15:42.841Z,97573.88
2023-03-11T21:18:10.359Z,97582.41
2023-03-11T21:20:37.398Z,97572.84
2023-03-11T21:23:05.047Z,97576.13
2023-03-11T21:25:32.181Z,97580.16
2023-03-11T21:27:59.243Z,97589.97
2023-03-11T21:30:26.386Z,97586.72
2023-03-11T21:32:53.842Z,97585.53
2023-03-11T21:35:21.193Z,97588.50
2023-03-11T21:37:48.421Z,97582.09
2023-03-11T21:40:15.639Z,97582.09
2023-03-11T21:42:42.879Z,97581.38
2023-03-11T21:45:10.732Z,97568.09
2023-03-11T21:47:38.116Z,97568.09
2023-03-11T21:50:06.383Z,97580.31
2023-03-11T21:52:34.628Z,97580.91
2023-03-11T21:55:01.770Z,97585.53
2023-03-11T21:57:28.801Z,97577.31
2023-03-11T21:59:55.873Z,97587.31
2023-03-11T22:02:23.053Z,97590.59
2023-03-11T22:04:50.837Z,97603.25
2023-03-11T22:07:18.172Z,97610.84
2023-03-11T22:09:45.451Z,97615.31
2023-03-11T22:12:12.543Z,97625.94
2023-03-11T22:14:39.797Z,97617.28
2023-03-11T22:17:06.893Z,97610.41
2023-03-11T22:19:34.168Z,97604.59
2023-03-11T22:22:01.286Z,97591.63
2023-03-11T22:24:28.413Z,97595.81
2023-03-11T22:26:55.730Z,97601.19
2023-03-11T22:29:22.854Z,97594.78
2023-03-11T22:31:49.970Z,97598.78
2023-03-11T22:34:17.835Z,97597.59
2023-03-11T22:36:44.900Z,97604.44
2023-03-11T22:39:12.003Z,97609.69
2023-03-11T22:41:39.791Z,97612.50
2023-03-11T22:44:06.864Z,97617.13
2023-03-11T22:46:34.106Z,97625.03
2023-03-11T22:49:01.193Z,97618.19
2023-03-11T22:51:28.428Z,97617.44
2023-03-11T22:53:55.928Z,97619.06
2023-03-11T22:56:23.089Z,97605.34
2023-03-11T22:58:50.153Z,97604.16
2023-03-11T23:01:17.467Z,97602.84
2023-03-11T23:03:45.104Z,97605.34
2023-03-11T23:06:15.501Z,97607.00
2023-03-11T23:08:43.368Z,97612.50
2023-03-11T23:11:13.301Z,97615.94
2023-03-11T23:13:41.263Z,97619.97
2023-03-11T23:16:21.970Z,97615.66
2023-03-11T23:18:51.444Z,97614.63
2023-03-11T23:21:22.490Z,97621.16
2023-03-11T23:23:49.680Z,97627.28
2023-03-11T23:26:17.133Z,97627.28
2023-03-11T23:28:45.683Z,97618.03
2023-03-11T23:31:14.550Z,97626.66
2023-03-11T23:33:41.894Z,97625.94
2023-03-11T23:36:11.524Z,97619.66
2023-03-11T23:38:38.963Z,97626.22
2023-03-11T23:41:11.407Z,97630.56
2023-03-11T23:43:39.015Z,97631.28
2023-03-11T23:46:06.263Z,97631.91
2023-03-11T23:48:34.349Z,97629.22
2023-03-11T23:51:01.392Z,97636.19
2023-03-11T23:53:28.696Z,97647.66
2023-03-11T23:55:55.759Z,97649.78
2023-03-11T23:58:23.115Z,97649.31
